Time;durP1;ratioP1;P1;durP2;ratioP2;P2;SDS_P1;SDS_P2;PMS_P1;PMS_P2;Temp;Humidity;BMP_temperature;BMP_pressure;BME280_temperature;BME280_humidity;BME280_pressure;Samples;Min_cycle;Max_cycle;Signal;HPM_P1;HPM_P2
2022/03/04 00:00:55;;;;;;;1.00;0.60;;;2.20;99.90;;;;;;4976199;28;20415;-74
2022/03/04 00:03:24;;;;;;;0.77;0.63;;;2.20;99.90;;;;;;4977421;28;20137;-73
2022/03/04 00:05:51;;;;;;;1.73;0.85;;;2.20;99.90;;;;;;4983337;28;20161;-73
2022/03/04 00:08:19;;;;;;;2.05;1.00;;;2.10;99.90;;;;;;4953512;28;20566;-74
2022/03/04 00:10:46;;;;;;;2.95;1.13;;;2.10;99.90;;;;;;4951267;28;20058;-74
2022/03/04 00:13:14;;;;;;;3.35;0.95;;;2.10;99.90;;;;;;4970287;28;20523;-74
2022/03/04 00:15:41;;;;;;;3.10;1.20;;;2.20;99.90;;;;;;4985605;28;20069;-74
2022/03/04 00:18:08;;;;;;;1.17;0.93;;;2.10;99.90;;;;;;4967627;28;20137;-74
2022/03/04 00:20:37;;;;;;;1.95;0.80;;;2.20;99.90;;;;;;4974775;28;20050;-74
2022/03/04 00:23:05;;;;;;;5.50;1.20;;;2.10;99.90;;;;;;4980416;28;20515;-74
2022/03/04 00:25:32;;;;;;;2.30;1.05;;;2.10;99.90;;;;;;4971789;28;20097;-74
2022/03/04 00:28:00;;;;;;;5.82;1.08;;;2.20;99.90;;;;;;4950599;28;20078;-74
2022/03/04 00:30:29;;;;;;;3.60;1.10;;;2.20;99.90;;;;;;4970156;28;20054;-74
2022/03/04 00:32:56;;;;;;;3.15;0.90;;;2.10;99.90;;;;;;4969459;28;20105;-73
2022/03/04 00:35:24;;;;;;;2.72;1.00;;;2.10;99.90;;;;;;4971957;28;20150;-73
2022/03/04 00:37:53;;;;;;;1.92;0.60;;;2.10;99.90;;;;;;4969280;28;20054;-74
2022/03/04 00:40:20;;;;;;;1.88;0.68;;;2.20;99.90;;;;;;4955445;28;20488;-73
2022/03/04 00:42:48;;;;;;;1.83;1.02;;;2.10;99.90;;;;;;4980993;28;20046;-75
2022/03/04 00:45:15;;;;;;;1.75;0.75;;;2.10;99.90;;;;;;4981478;28;20058;-74
2022/03/04 00:47:43;;;;;;;1.95;0.80;;;2.10;99.90;;;;;;4977947;28;20136;-74
2022/03/04 00:50:11;;;;;;;1.67;0.55;;;2.20;99.90;;;;;;4980308;28;20050;-73
2022/03/04 00:52:38;;;;;;;1.15;0.68;;;2.20;99.90;;;;;;4957029;28;20059;-74
2022/03/04 00:55:09;;;;;;;1.80;0.50;;;2.20;99.90;;;;;;4968776;28;20042;-74
2022/03/04 00:57:36;;;;;;;1.67;0.50;;;2.20;99.90;;;;;;4962751;28;20070;-74
2022/03/04 01:00:06;;;;;;;5.30;0.70;;;2.20;99.90;;;;;;4990421;28;20148;-74
2022/03/04 01:02:33;;;;;;;2.97;0.57;;;2.20;99.90;;;;;;4973328;28;20058;-74
2022/03/04 01:05:00;;;;;;;3.38;0.70;;;2.20;99.90;;;;;;4974497;28;20340;-74
2022/03/04 01:07:28;;;;;;;4.15;0.75;;;2.20;99.90;;;;;;4986069;28;20047;-74
2022/03/04 01:09:55;;;;;;;1.35;0.50;;;2.30;99.90;;;;;;4973285;28;20051;-74
2022/03/04 01:12:24;;;;;;;1.85;0.50;;;2.20;99.90;;;;;;4982842;28;20142;-74
2022/03/04 01:14:54;;;;;;;1.48;0.70;;;2.20;99.90;;;;;;4983773;28;20112;-75
2022/03/04 01:17:22;;;;;;;1.40;0.50;;;2.20;99.90;;;;;;4974882;28;20581;-74
2022/03/04 01:19:49;;;;;;;0.80;0.50;;;2.10;99.90;;;;;;4993172;28;20455;-74
2022/03/04 01:22:17;;;;;;;2.25;0.60;;;2.10;99.90;;;;;;4960346;28;20049;-74
2022/03/04 01:24:44;;;;;;;0.90;0.50;;;2.10;99.90;;;;;;4955833;28;20042;-76
2022/03/04 01:27:11;;;;;;;1.15;0.50;;;2.10;99.90;;;;;;4956237;28;20137;-74
2022/03/04 01:29:40;;;;;;;2.00;0.63;;;2.10;99.90;;;;;;4973732;28;20137;-73
2022/03/04 01:32:09;;;;;;;1.90;0.52;;;2.10;99.90;;;;;;4967711;28;20142;-73
2022/03/04 01:34:36;;;;;;;1.05;0.73;;;2.10;99.90;;;;;;4971469;28;20139;-74
2022/03/04 01:37:04;;;;;;;4.93;1.42;;;2.10;99.90;;;;;;4971339;28;20058;-75
2022/03/04 01:39:32;;;;;;;2.10;1.50;;;2.10;99.90;;;;;;4970774;28;20050;-74
2022/03/04 01:41:59;;;;;;;2.97;1.48;;;2.10;99.90;;;;;;4969820;28;20051;-74
2022/03/04 01:44:27;;;;;;;2.47;1.52;;;2.10;99.90;;;;;;4971438;28;20061;-75
2022/03/04 01:46:55;;;;;;;1.85;1.30;;;2.10;99.90;;;;;;4954209;28;20050;-74
2022/03/04 01:49:23;;;;;;;1.55;1.13;;;2.10;99.90;;;;;;4968881;28;20500;-75
2022/03/04 01:51:50;;;;;;;2.20;1.17;;;2.10;99.90;;;;;;4971305;28;20051;-75
2022/03/04 01:54:18;;;;;;;2.28;0.93;;;2.10;99.90;;;;;;4972885;28;20074;-75
2022/03/04 01:56:45;;;;;;;1.52;1.00;;;2.10;99.90;;;;;;4971927;28;20142;-76
2022/03/04 01:59:13;;;;;;;3.78;1.20;;;2.10;99.90;;;;;;4952628;28;20046;-76
2022/03/04 02:01:40;;;;;;;2.88;0.98;;;2.00;99.90;;;;;;4954794;28;20047;-75
2022/03/04 02:04:09;;;;;;;2.42;1.00;;;2.00;99.90;;;;;;4953684;28;20116;-75
2022/03/04 02:06:37;;;;;;;1.58;0.75;;;2.00;99.90;;;;;;4971518;28;20606;-75
2022/03/04 02:09:05;;;;;;;3.28;0.80;;;2.00;99.90;;;;;;4936000;28;20047;-74
2022/03/04 02:11:32;;;;;;;2.67;0.70;;;2.00;99.90;;;;;;4970620;28;20514;-74
2022/03/04 02:13:59;;;;;;;2.25;0.60;;;2.00;99.90;;;;;;4955309;28;20046;-74
2022/03/04 02:16:34;;;;;;;1.58;0.50;;;2.00;99.90;;;;;;4971159;28;20035;-75
2022/03/04 02:19:02;;;;;;;0.68;0.60;;;2.00;99.90;;;;;;4951801;28;20046;-74
2022/03/04 02:21:33;;;;;;;6.85;0.98;;;2.00;99.90;;;;;;4973786;28;20042;-75
2022/03/04 02:24:04;;;;;;;3.85;0.55;;;2.00;99.90;;;;;;4973392;28;20061;-74
2022/03/04 02:26:31;;;;;;;2.03;0.70;;;2.00;99.90;;;;;;4985892;28;20047;-76
2022/03/04 02:28:58;;;;;;;2.65;0.70;;;2.00;99.90;;;;;;4969655;28;20050;-76
2022/03/04 02:31:26;;;;;;;2.65;1.20;;;2.00;99.90;;;;;;4956643;28;20051;-76
2022/03/04 02:33:53;;;;;;;4.53;1.13;;;2.00;99.90;;;;;;4985408;28;20153;-75
2022/03/04 02:36:20;;;;;;;3.78;1.27;;;2.00;99.90;;;;;;4971655;28;20047;-75
2022/03/04 02:38:48;;;;;;;1.67;1.17;;;2.00;99.90;;;;;;4970500;28;20132;-75
2022/03/04 02:41:17;;;;;;;3.30;1.45;;;2.00;99.90;;;;;;4984952;28;20566;-77
2022/03/04 02:43:44;;;;;;;2.30;1.17;;;2.00;99.90;;;;;;4973143;28;20061;-76
2022/03/04 02:46:13;;;;;;;1.30;1.00;;;2.00;99.90;;;;;;4969949;28;20046;-76
2022/03/04 02:48:40;;;;;;;2.78;1.00;;;2.00;99.90;;;;;;4978956;28;20149;-77
2022/03/04 02:51:08;;;;;;;3.30;0.90;;;2.00;99.90;;;;;;4970509;28;20353;-76
2022/03/04 02:53:36;;;;;;;3.35;0.50;;;2.00;99.90;;;;;;4980145;28;20681;-76
2022/03/04 02:56:04;;;;;;;2.65;1.10;;;1.90;99.90;;;;;;4978919;28;20117;-75
2022/03/04 02:58:32;;;;;;;2.45;0.60;;;1.90;99.90;;;;;;4973955;28;20050;-75
2022/03/04 03:01:00;;;;;;;1.60;0.70;;;1.90;99.90;;;;;;4976281;28;20050;-76
2022/03/04 03:03:28;;;;;;;3.65;0.70;;;1.90;99.90;;;;;;4982525;28;20047;-76
2022/03/04 03:05:56;;;;;;;3.55;0.95;;;1.90;99.90;;;;;;4975367;28;20055;-76
2022/03/04 03:08:24;;;;;;;2.63;1.48;;;1.90;99.90;;;;;;4955592;28;20134;-76
2022/03/04 03:10:51;;;;;;;2.95;2.45;;;1.90;99.90;;;;;;4971721;28;20054;-76
2022/03/04 03:13:19;;;;;;;2.50;1.88;;;1.90;99.90;;;;;;4957769;28;20124;-75
2022/03/04 03:15:48;;;;;;;2.97;1.60;;;1.90;99.90;;;;;;4983509;28;20058;-75
2022/03/04 03:18:17;;;;;;;3.55;1.10;;;1.90;99.90;;;;;;4971346;28;20570;-75
2022/03/04 03:20:44;;;;;;;3.50;1.38;;;1.90;99.90;;;;;;4951267;29;20067;-75
2022/03/04 03:23:12;;;;;;;0.70;0.50;;;1.90;99.90;;;;;;4960425;28;20463;-76
2022/03/04 03:25:40;;;;;;;1.45;0.95;;;1.90;99.90;;;;;;4965050;28;20055;-75
2022/03/04 03:28:11;;;;;;;2.67;0.95;;;1.90;99.90;;;;;;4953211;28;20050;-75
2022/03/04 03:30:38;;;;;;;2.00;0.70;;;1.90;99.90;;;;;;4965844;28;20088;-74
2022/03/04 03:33:07;;;;;;;4.78;0.90;;;1.90;99.90;;;;;;4977648;28;20582;-74
2022/03/04 03:35:34;;;;;;;2.38;0.80;;;1.90;99.90;;;;;;4987841;28;20042;-74
2022/03/04 03:38:02;;;;;;;4.60;1.20;;;1.90;99.90;;;;;;4989280;28;20133;-74
2022/03/04 03:40:30;;;;;;;2.33;1.10;;;1.90;99.90;;;;;;4944054;28;20090;-74
2022/03/04 03:42:57;;;;;;;3.88;1.15;;;1.90;99.90;;;;;;4979169;28;20133;-74
2022/03/04 03:45:24;;;;;;;5.15;1.77;;;1.90;99.90;;;;;;4980955;28;20105;-76
2022/03/04 03:47:53;;;;;;;4.57;1.30;;;1.80;99.90;;;;;;4965053;28;20047;-75
2022/03/04 03:50:22;;;;;;;4.00;1.77;;;1.80;99.90;;;;;;4957199;28;20050;-74
2022/03/04 03:52:50;;;;;;;3.53;1.60;;;1.80;99.90;;;;;;4937232;28;20047;-74
2022/03/04 03:55:17;;;;;;;4.07;1.33;;;1.80;99.90;;;;;;4979017;28;20515;-73
2022/03/04 03:57:44;;;;;;;4.72;1.40;;;1.80;99.90;;;;;;4973040;28;20077;-74
2022/03/04 04:00:13;;;;;;;2.47;0.73;;;1.80;99.90;;;;;;4974282;28;20490;-73
2022/03/04 04:02:41;;;;;;;4.63;0.70;;;1.80;99.90;;;;;;4970501;28;20054;-73
2022/03/04 04:05:11;;;;;;;1.95;0.45;;;1.80;99.90;;;;;;4969069;28;20059;-74
2022/03/04 04:07:40;;;;;;;3.35;0.80;;;1.80;99.90;;;;;;4989414;28;20042;-74
2022/03/04 04:10:09;;;;;;;2.92;0.60;;;1.80;99.90;;;;;;4971776;28;20047;-74
2022/03/04 04:12:36;;;;;;;4.72;0.68;;;1.70;99.90;;;;;;4956068;28;20435;-73
2022/03/04 04:15:06;;;;;;;5.63;1.05;;;1.70;99.90;;;;;;4959401;28;20078;-76
2022/03/04 04:17:36;;;;;;;1.55;0.85;;;1.70;99.90;;;;;;4983449;28;20065;-77
2022/03/04 04:20:08;;;;;;;1.35;0.98;;;1.70;99.90;;;;;;4974435;28;20471;-75
2022/03/04 04:22:36;;;;;;;2.08;0.77;;;1.70;99.90;;;;;;4975549;28;20066;-76
2022/03/04 04:25:06;;;;;;;2.03;1.00;;;1.70;99.90;;;;;;4974518;28;20055;-76
2022/03/04 04:27:33;;;;;;;4.97;2.30;;;1.70;99.90;;;;;;4955816;28;20106;-75
2022/03/04 04:30:00;;;;;;;1.50;0.98;;;1.70;99.90;;;;;;4955156;28;20090;-77
2022/03/04 04:32:30;;;;;;;5.65;1.17;;;1.60;99.90;;;;;;4953730;29;20545;-74
2022/03/04 04:34:57;;;;;;;4.75;1.23;;;1.60;99.90;;;;;;4955341;28;20054;-75
2022/03/04 04:37:24;;;;;;;3.20;0.90;;;1.70;99.90;;;;;;4963705;28;20062;-75
2022/03/04 04:39:55;;;;;;;4.68;1.30;;;1.60;99.90;;;;;;4957488;28;20392;-75
2022/03/04 04:42:26;;;;;;;5.53;1.67;;;1.60;99.90;;;;;;4983901;28;20140;-74
2022/03/04 04:44:54;;;;;;;6.80;1.65;;;1.60;99.90;;;;;;4976692;28;20046;-74
2022/03/04 04:47:21;;;;;;;7.28;1.60;;;1.60;99.90;;;;;;4957492;28;20121;-74
2022/03/04 04:49:49;;;;;;;2.65;1.10;;;1.60;99.90;;;;;;4955689;28;20401;-74
2022/03/04 04:52:19;;;;;;;4.10;1.33;;;1.60;99.90;;;;;;4956838;28;20438;-74
2022/03/04 04:54:47;;;;;;;5.85;1.75;;;1.60;99.90;;;;;;4977857;28;20050;-74
2022/03/04 04:57:15;;;;;;;11.07;1.55;;;1.60;99.90;;;;;;4972419;28;20086;-73
2022/03/04 04:59:44;;;;;;;6.63;1.50;;;1.70;99.90;;;;;;4957048;28;20065;-73
2022/03/04 05:02:12;;;;;;;5.78;1.60;;;1.70;99.90;;;;;;4961653;28;20396;-73
2022/03/04 05:04:39;;;;;;;5.85;1.50;;;1.70;99.90;;;;;;4976016;28;20059;-74
2022/03/04 05:07:07;;;;;;;10.50;1.40;;;1.60;99.90;;;;;;4985112;28;20117;-72
2022/03/04 05:09:34;;;;;;;8.35;1.40;;;1.60;99.90;;;;;;4972705;28;20050;-72
2022/03/04 05:12:02;;;;;;;4.10;1.00;;;1.60;99.90;;;;;;4977960;28;20046;-73
2022/03/04 05:14:29;;;;;;;6.25;1.70;;;1.60;99.90;;;;;;4971522;28;20061;-73
2022/03/04 05:16:58;;;;;;;5.50;1.70;;;1.60;99.90;;;;;;4989490;28;20078;-73
2022/03/04 05:19:26;;;;;;;6.53;1.52;;;1.60;99.90;;;;;;4974690;28;20046;-73
2022/03/04 05:22:51;;;;;;;6.07;1.33;;;1.60;99.90;;;;;;4990059;28;20051;-73
2022/03/04 05:25:19;;;;;;;5.25;1.13;;;1.60;99.90;;;;;;4978709;28;20053;-74
2022/03/04 05:27:47;;;;;;;6.90;1.35;;;1.50;99.90;;;;;;4958360;28;20047;-75
2022/03/04 05:30:14;;;;;;;5.40;1.35;;;1.60;99.90;;;;;;4952066;29;20112;-75
2022/03/04 05:32:43;;;;;;;14.82;1.98;;;1.60;99.90;;;;;;4956509;28;20073;-74
2022/03/04 05:35:10;;;;;;;3.92;1.30;;;1.70;99.90;;;;;;4954584;28;20125;-73
2022/03/04 05:37:38;;;;;;;5.45;1.48;;;1.60;99.90;;;;;;4969567;28;20058;-73
2022/03/04 05:40:07;;;;;;;3.30;1.05;;;1.70;99.90;;;;;;4971327;28;20058;-74
2022/03/04 05:42:35;;;;;;;5.75;1.75;;;1.70;99.90;;;;;;4969769;28;20077;-73
2022/03/04 05:45:03;;;;;;;7.95;1.30;;;1.70;99.90;;;;;;4970166;28;20047;-73
2022/03/04 05:47:31;;;;;;;12.45;1.70;;;1.70;99.90;;;;;;4963740;28;20051;-74
2022/03/04 05:50:00;;;;;;;5.55;1.45;;;1.70;99.90;;;;;;4977388;28;20042;-73
2022/03/04 05:52:27;;;;;;;5.97;1.92;;;1.70;99.90;;;;;;4961749;28;20069;-74
2022/03/04 05:54:54;;;;;;;17.35;2.60;;;1.70;99.90;;;;;;4972969;28;20055;-74
2022/03/04 05:57:22;;;;;;;6.90;1.50;;;1.70;99.90;;;;;;4972029;28;20097;-73
2022/03/04 05:59:49;;;;;;;9.55;2.13;;;1.80;99.90;;;;;;4955574;28;20515;-74
2022/03/04 06:02:17;;;;;;;5.28;1.38;;;1.80;99.90;;;;;;4970097;28;20100;-74
2022/03/04 06:04:45;;;;;;;13.32;1.98;;;1.80;99.90;;;;;;4953686;28;20557;-74
2022/03/04 06:07:14;;;;;;;4.88;1.75;;;1.80;99.90;;;;;;4970941;28;20055;-74
2022/03/04 06:09:41;;;;;;;6.10;1.65;;;1.80;99.90;;;;;;4971230;28;20046;-72
2022/03/04 06:12:09;;;;;;;15.80;1.90;;;1.80;99.90;;;;;;4971702;28;20062;-72
2022/03/04 06:14:36;;;;;;;4.50;1.42;;;1.90;99.90;;;;;;4957052;28;20074;-73
2022/03/04 06:17:05;;;;;;;7.63;2.10;;;1.90;99.90;;;;;;4960812;28;20070;-73
2022/03/04 06:19:33;;;;;;;5.32;1.48;;;1.90;99.90;;;;;;4971240;28;20038;-73
2022/03/04 06:22:00;;;;;;;10.85;2.30;;;1.90;99.90;;;;;;4985589;28;20523;-73
2022/03/04 06:24:31;;;;;;;9.65;2.42;;;1.90;99.90;;;;;;4968303;28;20074;-73
2022/03/04 06:26:58;;;;;;;7.90;2.97;;;1.90;99.90;;;;;;4977087;28;20047;-73
2022/03/04 06:29:25;;;;;;;8.60;2.75;;;1.90;99.90;;;;;;4954004;28;20462;-73
2022/03/04 06:31:53;;;;;;;8.48;2.47;;;1.90;99.90;;;;;;4970899;28;20141;-74
2022/03/04 06:34:20;;;;;;;7.60;2.25;;;1.90;99.90;;;;;;4975412;28;20053;-74
2022/03/04 06:36:48;;;;;;;6.63;2.47;;;2.00;99.90;;;;;;4977515;28;20407;-73
2022/03/04 06:39:15;;;;;;;10.63;2.90;;;2.00;99.90;;;;;;4967384;28;20069;-73
2022/03/04 06:41:44;;;;;;;10.10;2.30;;;2.00;99.90;;;;;;4966534;28;20051;-73
2022/03/04 06:44:11;;;;;;;12.43;2.90;;;2.00;99.90;;;;;;4955868;28;20080;-73
2022/03/04 06:46:39;;;;;;;9.18;2.50;;;2.00;99.90;;;;;;4968265;28;20460;-74
2022/03/04 06:49:10;;;;;;;10.80;2.10;;;2.00;99.90;;;;;;4971049;28;20494;-73
2022/03/04 06:51:37;;;;;;;9.73;2.63;;;2.00;99.90;;;;;;4966695;28;20065;-73
2022/03/04 06:54:05;;;;;;;12.98;2.58;;;2.10;99.90;;;;;;4953972;28;20128;-74
2022/03/04 06:56:33;;;;;;;7.72;2.28;;;2.10;99.90;;;;;;4969374;28;20074;-73
2022/03/04 06:59:01;;;;;;;9.30;1.70;;;2.10;99.90;;;;;;4952084;28;20070;-73
2022/03/04 07:01:29;;;;;;;5.32;1.98;;;2.20;99.90;;;;;;4969386;28;20133;-72
2022/03/04 07:03:56;;;;;;;8.15;1.55;;;2.20;99.90;;;;;;4958136;28;20051;-73
2022/03/04 07:06:23;;;;;;;11.32;1.80;;;2.20;99.90;;;;;;4964183;28;20075;-73
2022/03/04 07:08:51;;;;;;;6.40;1.90;;;2.20;99.90;;;;;;4970978;28;20125;-72
2022/03/04 07:11:18;;;;;;;7.70;1.50;;;2.20;99.90;;;;;;4970214;28;20050;-73
2022/03/04 07:13:46;;;;;;;5.15;2.60;;;2.20;99.90;;;;;;4969425;28;20061;-74
2022/03/04 07:16:14;;;;;;;12.00;2.88;;;2.30;99.90;;;;;;4970859;28;20042;-74
2022/03/04 07:18:42;;;;;;;9.50;2.40;;;2.40;99.90;;;;;;4966283;28;20507;-74
2022/03/04 07:21:09;;;;;;;13.85;1.95;;;2.40;99.90;;;;;;4985419;28;20051;-74
2022/03/04 07:23:37;;;;;;;14.38;2.15;;;2.40;99.90;;;;;;4968896;28;20408;-75
2022/03/04 07:26:08;;;;;;;12.20;2.33;;;2.40;99.90;;;;;;4967640;28;20053;-74
2022/03/04 07:28:35;;;;;;;15.10;2.53;;;2.50;99.90;;;;;;4968258;28;20077;-74
2022/03/04 07:31:03;;;;;;;10.65;2.97;;;2.50;99.90;;;;;;4968203;28;20133;-74
2022/03/04 07:33:33;;;;;;;9.75;2.47;;;2.50;99.90;;;;;;4967211;28;20055;-74
2022/03/04 07:36:01;;;;;;;7.55;2.00;;;2.50;99.90;;;;;;4970519;28;20057;-74
2022/03/04 07:38:28;;;;;;;9.23;2.63;;;2.60;99.90;;;;;;4971140;28;20047;-74
2022/03/04 07:40:58;;;;;;;16.55;4.68;;;2.60;99.90;;;;;;4970206;28;20113;-73
2022/03/04 07:43:25;;;;;;;2.75;1.60;;;2.50;99.90;;;;;;4955791;28;20048;-74
2022/03/04 07:45:53;;;;;;;8.55;1.58;;;2.50;99.90;;;;;;4970088;28;20130;-75
2022/03/04 07:48:20;;;;;;;3.83;1.73;;;2.60;99.90;;;;;;4970650;28;20050;-74
2022/03/04 07:50:49;;;;;;;6.05;1.70;;;2.60;99.90;;;;;;4970012;28;20050;-74
2022/03/04 07:53:17;;;;;;;9.30;1.90;;;2.60;99.90;;;;;;4967109;28;20050;-75
2022/03/04 07:55:44;;;;;;;10.50;2.20;;;2.60;99.90;;;;;;4969357;28;20423;-73
2022/03/04 07:58:11;;;;;;;15.38;2.75;;;2.60;99.90;;;;;;4967759;28;20427;-74
2022/03/04 08:00:39;;;;;;;10.35;2.65;;;2.60;99.90;;;;;;4971329;28;20054;-73
2022/03/04 08:03:10;;;;;;;7.22;2.17;;;2.70;99.90;;;;;;4969673;28;20110;-72
2022/03/04 08:05:37;;;;;;;5.75;2.70;;;2.70;99.90;;;;;;4968961;28;20487;-72
2022/03/04 08:08:06;;;;;;;11.10;2.97;;;2.70;99.90;;;;;;4968725;28;20122;-73
2022/03/04 08:10:34;;;;;;;10.73;2.42;;;2.70;99.90;;;;;;4968133;28;20051;-72
2022/03/04 08:13:01;;;;;;;6.07;1.65;;;2.70;99.90;;;;;;4967831;28;20146;-73
2022/03/04 08:15:29;;;;;;;7.00;1.90;;;2.70;99.90;;;;;;4969690;28;20062;-73
2022/03/04 08:17:56;;;;;;;18.25;3.85;;;2.80;99.90;;;;;;4967759;28;20054;-73
2022/03/04 08:20:26;;;;;;;4.32;2.13;;;2.80;99.90;;;;;;4969228;28;20090;-73
2022/03/04 08:22:54;;;;;;;4.68;1.50;;;2.80;99.90;;;;;;4951746;28;20061;-73
2022/03/04 08:25:22;;;;;;;9.80;2.20;;;2.80;99.90;;;;;;4964367;28;20053;-74
2022/03/04 08:27:52;;;;;;;5.85;1.70;;;2.80;99.90;;;;;;4966438;28;20043;-73
2022/03/04 08:30:20;;;;;;;20.48;2.70;;;2.90;99.90;;;;;;4967491;28;20113;-73
2022/03/04 08:32:47;;;;;;;4.82;1.88;;;2.90;99.90;;;;;;4967438;28;20486;-73
2022/03/04 08:35:14;;;;;;;14.02;2.00;;;2.90;99.90;;;;;;4966001;28;20093;-73
2022/03/04 08:37:42;;;;;;;4.45;1.77;;;2.90;99.90;;;;;;4967494;28;20062;-73
2022/03/04 08:40:12;;;;;;;5.88;1.98;;;2.90;99.90;;;;;;4967470;28;20525;-75
2022/03/04 08:42:43;;;;;;;6.85;1.80;;;3.00;99.90;;;;;;4966351;28;20065;-75
2022/03/04 08:45:15;;;;;;;5.00;1.85;;;3.00;99.90;;;;;;4953339;28;20043;-75
2022/03/04 08:47:44;;;;;;;11.65;2.22;;;3.00;99.90;;;;;;4950502;28;20567;-75
2022/03/04 08:50:14;;;;;;;21.90;2.10;;;3.00;99.90;;;;;;4970476;28;20396;-76
2022/03/04 08:52:42;;;;;;;13.48;3.03;;;3.00;99.90;;;;;;4968332;28;20053;-76
2022/03/04 08:55:14;;;;;;;8.98;2.17;;;3.20;99.90;;;;;;4949801;28;20051;-76
2022/03/04 08:57:44;;;;;;;6.93;2.25;;;3.20;99.90;;;;;;4963617;28;20054;-75
2022/03/04 09:00:13;;;;;;;6.18;1.92;;;3.20;99.90;;;;;;4969274;28;20480;-74
2022/03/04 09:02:41;;;;;;;5.07;2.42;;;3.10;99.90;;;;;;4972729;28;20427;-74
2022/03/04 09:05:09;;;;;;;6.07;2.30;;;3.10;99.90;;;;;;4973332;28;20058;-74
2022/03/04 09:07:37;;;;;;;10.35;3.17;;;3.20;99.90;;;;;;4972251;28;20046;-75
2022/03/04 09:10:06;;;;;;;8.45;2.22;;;3.20;99.90;;;;;;4955415;28;20171;-75
2022/03/04 09:12:34;;;;;;;11.57;3.15;;;3.20;99.90;;;;;;4969863;28;20069;-74
2022/03/04 09:15:03;;;;;;;14.48;3.53;;;3.20;99.90;;;;;;4950341;28;20047;-74
2022/03/04 09:17:30;;;;;;;10.77;2.58;;;3.30;99.90;;;;;;4967243;28;20519;-74
2022/03/04 09:19:58;;;;;;;5.93;2.15;;;3.30;99.90;;;;;;4952348;28;20047;-74
2022/03/04 09:22:25;;;;;;;8.32;2.08;;;3.30;99.90;;;;;;4970896;28;20519;-74
2022/03/04 09:24:53;;;;;;;6.35;2.80;;;3.40;99.90;;;;;;4948321;28;20058;-74
2022/03/04 09:27:20;;;;;;;6.72;2.30;;;3.30;99.90;;;;;;4971668;28;20066;-74
2022/03/04 09:29:47;;;;;;;12.82;2.50;;;3.40;99.90;;;;;;4972933;28;20523;-74
2022/03/04 09:32:16;;;;;;;11.20;2.58;;;3.40;99.90;;;;;;4969409;28;20046;-75
2022/03/04 09:34:44;;;;;;;8.05;2.47;;;3.40;99.90;;;;;;4971617;28;20058;-75
2022/03/04 09:37:11;;;;;;;5.70;2.50;;;3.40;99.90;;;;;;4971230;28;20408;-74
2022/03/04 09:39:38;;;;;;;4.85;2.95;;;3.40;99.90;;;;;;4961719;28;20522;-75
2022/03/04 09:42:08;;;;;;;11.10;3.97;;;3.40;99.90;;;;;;4969837;28;20043;-75
2022/03/04 09:44:36;;;;;;;15.63;2.78;;;3.40;99.90;;;;;;4953849;28;20078;-75
2022/03/04 09:47:03;;;;;;;11.73;2.78;;;3.40;99.90;;;;;;4954822;28;20043;-75
2022/03/04 09:49:36;;;;;;;6.57;2.40;;;3.40;99.90;;;;;;4970131;28;20059;-76
2022/03/04 09:52:04;;;;;;;13.18;2.72;;;3.40;99.90;;;;;;4971500;28;20062;-73
2022/03/04 09:54:33;;;;;;;5.45;2.30;;;3.30;99.90;;;;;;4972370;28;20515;-75
2022/03/04 09:57:01;;;;;;;9.45;2.70;;;3.30;99.90;;;;;;4970917;28;20158;-75
2022/03/04 09:59:28;;;;;;;6.95;2.65;;;3.30;99.90;;;;;;4950967;28;20502;-75
2022/03/04 10:01:58;;;;;;;6.90;2.42;;;3.30;99.90;;;;;;4970992;28;20058;-75
2022/03/04 10:04:27;;;;;;;5.75;2.13;;;3.30;99.90;;;;;;4971218;28;20057;-76
2022/03/04 10:06:55;;;;;;;14.52;4.05;;;3.30;99.90;;;;;;4971059;28;20058;-76
2022/03/04 10:09:37;;;;;;;9.20;2.17;;;3.40;99.90;;;;;;4969179;28;20078;-76
2022/03/04 10:12:07;;;;;;;17.15;3.83;;;3.40;99.90;;;;;;4953417;28;20511;-76
2022/03/04 10:14:35;;;;;;;5.65;2.55;;;3.50;99.90;;;;;;4952462;28;20046;-76
2022/03/04 10:17:05;;;;;;;3.55;2.17;;;3.50;99.90;;;;;;4950788;28;20559;-75
2022/03/04 10:19:33;;;;;;;7.00;2.42;;;3.50;99.90;;;;;;4980197;28;20105;-74
2022/03/04 10:22:06;;;;;;;14.40;2.88;;;3.60;99.90;;;;;;4963959;28;20534;-75
2022/03/04 10:24:39;;;;;;;13.13;2.90;;;3.70;99.90;;;;;;4981267;28;20047;-75
2022/03/04 10:27:09;;;;;;;9.43;2.25;;;3.70;99.90;;;;;;4952248;28;20530;-74
2022/03/04 10:29:41;;;;;;;8.00;2.15;;;3.80;99.90;;;;;;4980839;28;20062;-76
2022/03/04 10:32:14;;;;;;;6.45;2.67;;;3.80;99.90;;;;;;4968500;28;20466;-76
2022/03/04 10:34:51;;;;;;;7.22;2.05;;;4.10;99.90;;;;;;4949946;28;20149;-76
2022/03/04 10:37:23;;;;;;;9.45;2.42;;;4.50;99.90;;;;;;4969794;28;20145;-73
2022/03/04 10:40:09;;;;;;;4.03;2.80;;;4.90;99.90;;;;;;4970139;28;20061;-74
2022/03/04 10:42:50;;;;;;;5.57;2.80;;;5.20;99.90;;;;;;4972168;28;20050;-74
2022/03/04 10:45:23;;;;;;;6.30;3.03;;;5.30;99.90;;;;;;4947265;28;20047;-74
2022/03/04 10:47:53;;;;;;;7.97;3.72;;;5.30;99.20;;;;;;4970630;28;20089;-77
2022/03/04 10:50:28;;;;;;;7.95;3.13;;;5.30;98.70;;;;;;4972961;28;20074;-77
2022/03/04 10:53:01;;;;;;;5.00;2.70;;;5.10;98.50;;;;;;4970499;28;20543;-77
2022/03/04 10:55:41;;;;;;;6.70;2.33;;;4.80;98.00;;;;;;4969674;28;20055;-77
2022/03/04 10:58:15;;;;;;;6.93;1.90;;;4.50;96.70;;;;;;4971748;28;20476;-74
2022/03/04 11:00:45;;;;;;;9.30;2.80;;;4.40;97.90;;;;;;4969605;28;20601;-74
2022/03/04 11:03:17;;;;;;;5.40;2.20;;;4.20;99.30;;;;;;4971788;28;20050;-75
2022/03/04 11:05:45;;;;;;;7.55;2.25;;;4.10;99.90;;;;;;4968382;28;20085;-74
2022/03/04 11:08:15;;;;;;;16.02;2.47;;;3.90;99.90;;;;;;4939166;28;20061;-74
2022/03/04 11:10:42;;;;;;;10.15;2.55;;;3.80;99.90;;;;;;4970368;28;20518;-74
2022/03/04 11:13:11;;;;;;;6.13;2.60;;;3.70;99.90;;;;;;4962804;28;20057;-74
2022/03/04 11:15:41;;;;;;;8.38;2.45;;;3.70;99.90;;;;;;4966586;28;20050;-74
2022/03/04 11:18:10;;;;;;;9.40;2.28;;;3.70;99.40;;;;;;4970106;28;20046;-74
2022/03/04 11:20:39;;;;;;;7.80;2.35;;;3.90;98.40;;;;;;4969408;28;20047;-75
2022/03/04 11:23:08;;;;;;;5.78;2.10;;;4.00;97.60;;;;;;4950374;28;20419;-74
2022/03/04 11:25:41;;;;;;;4.47;1.67;;;4.10;98.80;;;;;;4965415;28;20420;-75
2022/03/04 11:28:14;;;;;;;2.20;1.50;;;4.10;96.30;;;;;;4968253;28;20138;-75
2022/03/04 11:30:44;;;;;;;4.13;1.95;;;4.10;96.60;;;;;;4972857;28;20069;-75
2022/03/04 11:33:21;;;;;;;6.93;1.75;;;4.10;96.80;;;;;;4970231;28;20117;-75
2022/03/04 11:36:03;;;;;;;1.90;1.40;;;4.20;98.80;;;;;;4967790;28;20090;-74
2022/03/04 11:39:10;;;;;;;4.63;1.50;;;4.60;98.00;;;;;;4970650;28;20053;-74
2022/03/04 11:42:11;;;;;;;7.07;1.77;;;6.90;92.10;;;;;;4962325;28;20336;-75
2022/03/04 11:44:59;;;;;;;5.78;1.73;;;9.60;74.70;;;;;;4968489;28;20062;-74
2022/03/04 11:47:31;;;;;;;10.07;2.28;;;11.70;62.10;;;;;;4968921;28;20046;-76
2022/03/04 11:49:59;;;;;;;5.67;2.30;;;13.10;56.90;;;;;;4967494;28;20059;-75
2022/03/04 11:52:29;;;;;;;6.53;1.90;;;14.20;53.60;;;;;;4967355;28;20599;-74
2022/03/04 11:55:22;;;;;;;2.85;1.42;;;15.30;51.50;;;;;;4968688;28;20141;-75
2022/03/04 11:58:00;;;;;;;5.53;2.05;;;15.60;49.00;;;;;;4970075;28;20047;-75
2022/03/04 12:00:39;;;;;;;8.20;2.05;;;15.40;47.80;;;;;;4964009;28;20628;-75
2022/03/04 12:03:18;;;;;;;3.70;1.98;;;14.80;49.20;;;;;;4962594;28;20543;-75
2022/03/04 12:06:03;;;;;;;4.55;1.38;;;14.50;48.50;;;;;;4967428;28;20053;-74
2022/03/04 12:08:41;;;;;;;8.80;1.58;;;14.30;48.60;;;;;;4950540;28;20070;-76
2022/03/04 12:11:09;;;;;;;8.27;1.48;;;12.60;49.60;;;;;;4947502;28;20142;-75
2022/03/04 12:13:43;;;;;;;7.40;1.55;;;10.80;51.20;;;;;;4948436;28;20076;-76
2022/03/04 12:16:11;;;;;;;6.28;2.45;;;10.40;54.10;;;;;;4952085;28;20051;-75
2022/03/04 12:18:43;;;;;;;7.18;1.33;;;11.30;54.40;;;;;;4950201;28;20051;-76
2022/03/04 12:21:26;;;;;;;5.93;1.75;;;12.30;52.70;;;;;;4944537;28;20547;-77
2022/03/04 12:24:00;;;;;;;4.75;1.30;;;13.50;51.30;;;;;;4966735;28;20097;-79
2022/03/04 12:26:36;;;;;;;5.32;1.75;;;14.40;49.10;;;;;;4970313;28;20054;-77
2022/03/04 12:29:07;;;;;;;1.73;0.95;;;15.30;47.00;;;;;;4967402;28;20438;-76
2022/03/04 12:31:41;;;;;;;6.95;1.48;;;15.30;46.00;;;;;;4980479;28;20369;-78
2022/03/04 12:34:20;;;;;;;11.02;2.22;;;15.20;47.30;;;;;;4981670;28;20059;-78
2022/03/04 12:36:48;;;;;;;9.75;1.75;;;13.50;47.10;;;;;;4968484;28;20531;-74
2022/03/04 12:39:20;;;;;;;6.95;1.40;;;11.60;49.40;;;;;;4978563;28;20194;-75
2022/03/04 12:41:49;;;;;;;2.50;1.45;;;10.40;51.40;;;;;;4955503;28;20419;-74
2022/03/04 12:44:18;;;;;;;5.47;1.30;;;9.40;53.20;;;;;;4954406;28;20061;-74
2022/03/04 12:46:45;;;;;;;7.15;1.60;;;8.50;55.00;;;;;;4983301;28;20120;-72
2022/03/04 12:49:15;;;;;;;4.00;1.10;;;7.80;57.30;;;;;;4957265;28;20046;-74
2022/03/04 12:51:45;;;;;;;1.60;0.88;;;8.10;57.60;;;;;;4972527;28;20077;-75
2022/03/04 12:54:17;;;;;;;6.80;1.08;;;8.60;57.60;;;;;;4971654;28;20086;-75
2022/03/04 12:56:51;;;;;;;4.65;1.10;;;8.30;57.70;;;;;;4971557;28;20043;-74
2022/03/04 12:59:21;;;;;;;4.60;1.20;;;7.60;57.90;;;;;;4971043;28;20888;-75
2022/03/04 13:01:51;;;;;;;5.25;1.50;;;7.10;58.80;;;;;;4963779;28;20452;-74
2022/03/04 13:04:19;;;;;;;12.00;1.88;;;7.20;59.60;;;;;;4954588;28;20466;-74
2022/03/04 13:06:48;;;;;;;7.93;2.05;;;8.00;59.20;;;;;;4973775;28;20047;-75